createdAt,value
2019-01-24T00:00:43.937Z,98483.19
2019-01-24T00:03:24.839Z,98489.46
2019-01-24T00:06:06.420Z,98499.25
2019-01-24T00:12:09.491Z,98501.16
2019-01-24T00:15:11.583Z,98503.58
2019-01-24T00:17:52.415Z,98499.74
2019-01-24T00:20:24.091Z,98498.79
2019-01-24T00:23:12.977Z,98498.80
2019-01-24T00:26:13.345Z,98496.41
2019-01-24T00:35:13.928Z,98500.22
2019-01-24T00:38:03.609Z,98502.48
2019-01-24T00:40:44.706Z,98502.49
2019-01-24T00:43:14.867Z,98514.05
2019-01-24T00:49:25.242Z,98509.92
2019-01-24T00:52:34.240Z,98418.41
2019-01-24T00:55:15.123Z,98514.58
2019-01-24T00:58:24.748Z,98523.08
2019-01-24T01:01:13.808Z,98526.80
2019-01-24T01:03:44.415Z,98524.38
2019-01-24T01:09:24.329Z,98548.94
2019-01-24T01:14:55.016Z,98540.43
2019-01-24T01:17:36.751Z,98540.72
2019-01-24T01:20:25.829Z,98541.52
2019-01-24T01:23:14.910Z,98542.34
2019-01-24T01:25:55.878Z,98531.92
2019-01-24T01:28:36.912Z,98539.44
2019-01-24T01:31:46.075Z,98539.91
2019-01-24T01:38:04.439Z,98547.75
2019-01-24T01:40:53.411Z,98552.27
2019-01-24T01:47:05.117Z,98547.80
2019-01-24T01:49:48.653Z,98546.66
2019-01-24T01:52:29.428Z,98543.63
2019-01-24T01:58:13.796Z,98549.09
2019-01-24T02:10:18.569Z,98553.13
2019-01-24T02:13:20.729Z,98555.22
2019-01-24T02:16:02.677Z,98556.66
2019-01-24T02:18:43.755Z,98557.12
2019-01-24T02:21:52.873Z,98560.17
2019-01-24T02:27:58.353Z,98555.55
2019-01-24T02:30:39.199Z,98557.60
2019-01-24T02:36:39.733Z,98561.64
2019-01-24T02:42:39.094Z,98565.97
2019-01-24T02:45:22.122Z,98565.16
2019-01-24T02:48:03.873Z,98571.91
2019-01-24T02:50:44.640Z,98575.09
2019-01-24T02:56:36.061Z,98579.08
2019-01-24T02:59:16.427Z,98581.31
2019-01-24T03:02:05.652Z,98579.89
2019-01-24T03:04:35.881Z,98583.08
2019-01-24T03:07:45.177Z,98587.58
2019-01-24T03:16:52.711Z,98579.21
2019-01-24T03:19:34.217Z,98585.44
2019-01-24T03:22:04.249Z,98580.48
2019-01-24T03:25:13.144Z,98583.05
2019-01-24T03:28:13.309Z,98591.72
2019-01-24T03:30:55.042Z,98582.25
2019-01-24T03:36:38.094Z,98587.04
2019-01-24T03:39:48.514Z,98594.25
2019-01-24T03:45:27.887Z,98596.98
2019-01-24T03:48:16.820Z,98597.45
2019-01-24T03:53:48.829Z,98593.59
2019-01-24T03:59:46.190Z,98599.69
2019-01-24T04:02:19.929Z,98601.02
2019-01-24T04:04:50.022Z,98598.92
2019-01-24T04:07:20.263Z,98595.41
2019-01-24T04:09:50.353Z,98593.99
2019-01-24T04:12:20.506Z,98594.67
2019-01-24T04:14:50.302Z,98593.05
2019-01-24T04:17:20.318Z,98592.26
2019-01-24T04:23:32.006Z,98605.77
2019-01-24T04:29:22.924Z,98602.92
2019-01-24T04:32:04.315Z,98605.17
2019-01-24T04:34:54.903Z,98607.25
2019-01-24T04:37:43.806Z,98603.27
2019-01-24T04:40:15.856Z,98608.58
2019-01-24T04:43:07.460Z,98612.58
2019-01-24T04:45:38.066Z,98615.95
2019-01-24T04:51:51.280Z,98607.64
2019-01-24T04:54:21.604Z,98611.50
2019-01-24T04:57:11.438Z,98609.93
2019-01-24T05:00:01.605Z,98620.69
2019-01-24T05:02:44.630Z,98622.30
2019-01-24T05:05:14.909Z,98616.21
2019-01-24T05:13:53.243Z,98575.81
2019-01-24T05:19:28.311Z,98631.48
2019-01-24T05:22:11.600Z,98629.38
2019-01-24T05:25:20.713Z,98630.34
2019-01-24T05:30:54.169Z,98630.20
2019-01-24T05:33:24.432Z,98632.62
2019-01-24T05:36:13.261Z,98638.09
2019-01-24T05:38:43.160Z,98642.94
2019-01-24T05:41:36.611Z,98639.57
2019-01-24T05:44:07.528Z,98646.94
2019-01-24T05:46:57.178Z,98651.13
2019-01-24T05:49:28.786Z,98647.28
2019-01-24T05:52:00.806Z,98646.14
2019-01-24T06:01:13.121Z,98659.13
2019-01-24T06:04:13.828Z,98674.69
2019-01-24T06:06:58.239Z,98671.68
2019-01-24T06:09:40.910Z,98671.97
2019-01-24T06:12:22.149Z,98680.82
2019-01-24T06:15:31.434Z,98680.67
2019-01-24T06:18:20.763Z,98686.77
2019-01-24T06:24:33.502Z,98680.02
2019-01-24T06:30:31.660Z,98682.16
2019-01-24T06:33:01.830Z,98682.97
2019-01-24T06:35:31.910Z,98682.31
2019-01-24T06:38:02.244Z,98680.73
2019-01-24T06:40:32.242Z,98688.73
2019-01-24T06:43:02.121Z,98680.73
2019-01-24T06:45:33.784Z,98684.92
2019-01-24T06:48:03.959Z,98690.39
2019-01-24T06:50:35.869Z,98689.73
2019-01-24T06:53:09.136Z,98585.51
2019-01-24T06:55:42.227Z,98697.92
2019-01-24T06:58:13.286Z,98678.73
2019-01-24T07:00:44.488Z,98699.72
2019-01-24T07:03:16.476Z,98704.05
2019-01-24T07:09:10.361Z,98706.77
2019-01-24T07:11:40.717Z,98617.84
2019-01-24T07:14:10.736Z,98716.25
2019-01-24T07:16:40.513Z,98716.58
2019-01-24T07:19:13.194Z,98717.39
2019-01-24T07:21:43.505Z,98727.38
2019-01-24T07:24:13.960Z,98734.14
2019-01-24T07:26:45.122Z,98728.67
2019-01-24T07:29:15.352Z,98730.30
2019-01-24T07:31:46.823Z,98736.23
2019-01-24T07:43:40.097Z,98759.23
2019-01-24T07:52:19.543Z,98766.63
2019-01-24T07:58:05.920Z,98765.82
2019-01-24T08:00:37.345Z,98771.48
2019-01-24T08:06:20.621Z,98783.38
2019-01-24T08:08:51.116Z,98772.44
2019-01-24T08:11:23.405Z,98775.82
2019-01-24T08:14:32.312Z,98688.61
2019-01-24T08:23:44.388Z,98785.48
2019-01-24T08:28:59.411Z,98780.06
2019-01-24T08:31:40.977Z,98690.02
2019-01-24T08:34:21.889Z,98781.87
2019-01-24T08:37:11.035Z,98777.05
2019-01-24T08:39:43.834Z,98775.91
2019-01-24T08:42:13.972Z,98782.86
2019-01-24T08:44:45.080Z,98782.53
2019-01-24T08:47:15.397Z,98779.48
2019-01-24T08:49:45.256Z,98781.27
2019-01-24T08:52:15.652Z,98777.74
2019-01-24T08:54:45.867Z,98778.22
2019-01-24T08:57:15.919Z,98779.84
2019-01-24T08:59:46.080Z,98781.00
2019-01-24T09:02:17.417Z,98778.12
2019-01-24T09:04:47.347Z,98782.63
2019-01-24T09:07:18.202Z,98781.34
2019-01-24T09:09:53.782Z,98780.87
2019-01-24T09:12:30.063Z,98785.05
2019-01-24T09:14:56.224Z,98787.48
2019-01-24T09:17:30.620Z,98792.30
2019-01-24T09:20:02.202Z,98803.24
2019-01-24T09:22:32.210Z,98792.62
2019-01-24T09:25:06.733Z,98794.55
2019-01-24T09:27:37.088Z,98791.63
2019-01-24T09:30:10.374Z,98797.41
2019-01-24T09:32:40.825Z,98684.94
2019-01-24T09:35:11.600Z,98800.30
2019-01-24T09:37:41.977Z,98800.92
2019-01-24T09:40:13.047Z,98801.53
2019-01-24T09:42:43.660Z,98803.95
2019-01-24T09:45:19.777Z,98810.05
2019-01-24T09:47:50.216Z,98814.06
2019-01-24T09:50:22.271Z,98817.13
2019-01-24T09:52:52.362Z,98818.91
2019-01-24T09:58:57.093Z,98825.45
2019-01-24T10:04:49.310Z,98821.12
2019-01-24T10:10:29.394Z,98825.21
2019-01-24T10:16:19.814Z,98738.72
2019-01-24T10:19:29.796Z,98831.16
2019-01-24T10:22:19.027Z,98828.14
2019-01-24T10:25:20.124Z,98826.00
2019-01-24T10:28:01.728Z,98820.84
2019-01-24T10:30:43.422Z,98818.78
2019-01-24T10:36:17.588Z,98800.25
2019-01-24T10:38:59.139Z,98824.22
2019-01-24T10:41:42.387Z,98822.94
2019-01-24T10:44:23.907Z,98826.94
2019-01-24T10:47:05.403Z,98827.05
2019-01-24T10:49:47.096Z,98828.70
2019-01-24T10:52:29.321Z,98834.20
2019-01-24T10:55:13.684Z,98835.50
2019-01-24T11:01:24.048Z,98838.69
2019-01-24T11:04:33.300Z,98831.09
2019-01-24T11:07:23.115Z,98828.83
2019-01-24T11:16:07.682Z,98830.56
2019-01-24T11:18:49.533Z,98831.89
2019-01-24T11:21:49.483Z,98828.42
2019-01-24T11:24:29.742Z,98830.51
2019-01-24T11:27:18.963Z,98832.42
2019-01-24T11:29:49.978Z,98825.53
2019-01-24T11:32:21.403Z,98819.76
2019-01-24T11:35:30.469Z,98819.37
2019-01-24T11:38:19.575Z,98817.44
2019-01-24T11:44:18.994Z,98821.95
2019-01-24T11:47:27.966Z,98817.12
2019-01-24T11:50:27.788Z,98811.34
2019-01-24T11:53:28.594Z,98808.06
2019-01-24T11:56:11.980Z,98813.92
2019-01-24T11:58:42.160Z,98814.95
2019-01-24T12:04:26.411Z,98822.07
2019-01-24T12:10:20.650Z,98817.17
2019-01-24T12:13:09.988Z,98819.64
2019-01-24T12:16:19.306Z,98805.00
2019-01-24T12:22:00.213Z,98824.98
2019-01-24T12:24:41.053Z,98813.03
2019-01-24T12:27:11.365Z,98815.08
2019-01-24T12:29:42.161Z,98813.13
2019-01-24T12:32:12.049Z,98805.42
2019-01-24T12:35:02.769Z,98808.45
2019-01-24T12:37:44.367Z,98802.30
2019-01-24T12:43:36.024Z,98806.34
2019-01-24T12:46:25.319Z,98806.39
2019-01-24T12:49:06.468Z,98810.55
2019-01-24T12:52:14.263Z,98808.61
2019-01-24T12:57:55.429Z,98803.34
2019-01-24T13:00:36.601Z,98808.28
2019-01-24T13:03:26.257Z,98811.41
2019-01-24T13:05:57.723Z,98812.53
2019-01-24T13:08:32.977Z,98810.31
2019-01-24T13:11:06.982Z,98809.23
2019-01-24T13:13:40.115Z,98812.47
2019-01-24T13:16:10.589Z,98809.39
2019-01-24T13:18:41.558Z,98806.66
2019-01-24T13:21:11.724Z,98806.05
2019-01-24T13:23:41.805Z,98806.97
2019-01-24T13:26:14.778Z,98804.06
2019-01-24T13:28:46.647Z,98803.38
2019-01-24T13:31:17.258Z,98809.08
2019-01-24T13:33:47.538Z,98809.32
2019-01-24T13:36:20.045Z,98818.38
2019-01-24T13:38:50.445Z,98812.88
2019-01-24T13:41:20.919Z,98819.70
2019-01-24T13:43:51.158Z,98813.93
2019-01-24T13:46:21.837Z,98815.88
2019-01-24T13:48:53.517Z,98812.67
2019-01-24T13:51:24.434Z,98820.76
2019-01-24T13:53:54.631Z,98823.33
2019-01-24T13:59:39.328Z,98828.02
2019-01-24T14:02:39.850Z,98833.23
2019-01-24T14:05:41.538Z,98835.64
2019-01-24T14:08:23.146Z,98826.93
2019-01-24T14:11:07.529Z,98830.97
2019-01-24T14:13:48.622Z,98831.33
2019-01-24T14:20:00.697Z,98850.89
2019-01-24T14:22:33.570Z,98846.41
2019-01-24T14:25:05.206Z,98846.78
2019-01-24T14:27:38.136Z,98847.75
2019-01-24T14:36:30.142Z,98851.95
2019-01-24T14:42:16.175Z,98868.78
2019-01-24T14:48:34.394Z,98872.84
2019-01-24T14:51:10.920Z,98883.98
2019-01-24T14:53:41.263Z,98884.62
2019-01-24T14:56:17.927Z,98886.55
2019-01-24T14:58:51.013Z,98885.28
2019-01-24T15:01:25.255Z,98879.63
2019-01-24T15:04:14.139Z,98882.88
2019-01-24T15:10:05.531Z,98889.67
2019-01-24T15:12:46.905Z,98883.23
2019-01-24T15:18:29.815Z,98893.39
2019-01-24T15:21:12.214Z,98903.08
2019-01-24T15:23:54.017Z,98906.78
2019-01-24T15:27:03.221Z,98908.23
2019-01-24T15:30:11.157Z,98907.45
2019-01-24T15:33:20.662Z,98905.66
2019-01-24T15:35:51.755Z,98914.38
2019-01-24T15:38:30.440Z,98926.33
2019-01-24T15:41:04.766Z,98918.74
2019-01-24T15:43:38.571Z,98912.30
2019-01-24T15:46:15.068Z,98907.93
2019-01-24T15:51:44.391Z,98909.58
2019-01-24T15:54:19.146Z,98902.45
2019-01-24T15:56:54.629Z,98904.40
2019-01-24T16:00:05.084Z,98912.48
2019-01-24T16:02:37.106Z,98913.58
2019-01-24T16:05:09.936Z,98918.59
2019-01-24T16:07:40.011Z,98911.67
2019-01-24T16:10:12.327Z,98915.03
2019-01-24T16:12:42.819Z,98912.95
2019-01-24T16:15:26.606Z,98913.77
2019-01-24T16:18:01.492Z,98915.86
2019-01-24T16:20:32.874Z,98919.41
2019-01-24T16:23:40.605Z,98928.59
2019-01-24T16:32:24.446Z,98937.14
2019-01-24T16:35:06.901Z,98935.05
2019-01-24T16:38:09.450Z,98937.61
2019-01-24T16:40:51.523Z,98942.28
2019-01-24T16:49:14.395Z,98946.80
2019-01-24T16:54:59.699Z,98947.94
2019-01-24T17:00:25.532Z,98950.52
2019-01-24T17:03:07.495Z,98955.98
2019-01-24T17:05:40.631Z,98961.14
2019-01-24T17:08:16.745Z,98959.22
2019-01-24T17:10:47.307Z,98964.03
2019-01-24T17:13:20.800Z,98961.16
2019-01-24T17:16:10.908Z,98968.09
2019-01-24T17:18:47.260Z,98964.37
2019-01-24T17:21:28.306Z,98971.15
2019-01-24T17:24:07.373Z,98973.40
2019-01-24T17:30:35.262Z,98972.59
2019-01-24T17:33:17.861Z,98980.97
2019-01-24T17:36:03.268Z,98983.88
2019-01-24T17:38:45.191Z,98984.84
2019-01-24T17:41:28.055Z,98986.77
2019-01-24T17:44:13.131Z,98916.57
2019-01-24T17:46:57.537Z,98996.89
2019-01-24T17:52:47.626Z,99005.59
2019-01-24T17:55:31.625Z,99008.31
2019-01-24T17:58:13.565Z,99011.86
2019-01-24T18:00:58.838Z,99017.16
2019-01-24T18:03:42.657Z,99008.80
2019-01-24T18:09:10.213Z,99021.69
2019-01-24T18:14:41.121Z,99028.76
2019-01-24T18:17:23.030Z,99029.27
2019-01-24T18:29:45.838Z,99041.34
2019-01-24T18:32:45.476Z,99048.09
2019-01-24T18:47:05.846Z,99064.16
2019-01-24T18:49:40.796Z,99061.59
2019-01-24T18:52:14.333Z,99057.25
2019-01-24T18:54:50.763Z,99061.73
2019-01-24T18:57:33.012Z,99061.07
2019-01-24T19:00:16.843Z,98959.57
2019-01-24T19:02:56.175Z,99060.59
2019-01-24T19:08:45.923Z,99060.44
2019-01-24T19:11:25.445Z,99065.27
2019-01-24T19:14:07.496Z,99066.70
2019-01-24T19:16:51.047Z,99067.84
2019-01-24T19:23:24.416Z,99065.22
2019-01-24T19:26:05.657Z,99064.08
2019-01-24T19:28:48.515Z,99063.92
2019-01-24T19:31:35.872Z,99064.88
2019-01-24T19:34:17.931Z,99070.49
2019-01-24T19:37:03.227Z,99073.03
2019-01-24T19:39:46.339Z,99080.93
2019-01-24T19:42:28.706Z,99083.98
2019-01-24T19:45:10.842Z,99071.92
2019-01-24T19:47:53.362Z,99080.74
2019-01-24T19:50:44.215Z,99081.70
2019-01-24T19:53:22.268Z,99087.50
2019-01-24T19:55:59.645Z,99089.91
2019-01-24T20:02:12.890Z,99096.64
2019-01-24T20:04:55.133Z,99099.51
2019-01-24T20:08:08.141Z,99101.61
2019-01-24T20:10:40.717Z,99102.27
2019-01-24T20:13:17.074Z,99108.85
2019-01-24T20:15:52.358Z,99109.33
2019-01-24T20:18:31.578Z,99107.91
2019-01-24T20:21:08.539Z,99106.63
2019-01-24T20:23:42.710Z,99114.83
2019-01-24T20:26:19.615Z,99108.41
2019-01-24T20:28:51.799Z,99122.89
2019-01-24T20:31:29.247Z,99115.64
2019-01-24T20:34:18.722Z,99115.48
2019-01-24T20:39:55.259Z,99120.30
2019-01-24T20:42:29.484Z,99120.30
2019-01-24T20:45:09.172Z,99128.52
2019-01-24T20:47:40.569Z,99124.52
2019-01-24T20:50:19.546Z,99102.88
2019-01-24T20:53:10.064Z,99122.75
2019-01-24T20:55:46.839Z,99128.66
2019-01-24T20:59:02.059Z,99130.89
2019-01-24T21:01:40.650Z,99133.60
2019-01-24T21:04:13.005Z,99140.05
2019-01-24T21:06:45.940Z,99144.09
2019-01-24T21:21:46.160Z,99148.08
2019-01-24T21:24:56.942Z,99149.84
2019-01-24T21:30:38.904Z,99154.66
2019-01-24T21:36:33.096Z,99157.57
2019-01-24T21:39:24.433Z,99158.86
2019-01-24T21:41:54.755Z,99162.24
2019-01-24T21:54:43.265Z,99153.38
2019-01-24T21:57:34.338Z,99155.45
2019-01-24T22:00:08.412Z,99153.16
2019-01-24T22:02:49.871Z,99155.86
2019-01-24T22:05:58.986Z,99155.69
2019-01-24T22:11:39.967Z,99153.70
2019-01-24T22:14:21.690Z,99153.53
2019-01-24T22:17:04.216Z,99156.45
2019-01-24T22:19:46.119Z,99154.06
2019-01-24T22:22:28.163Z,99159.08
2019-01-24T22:31:21.577Z,99149.41
2019-01-24T22:34:03.456Z,99150.54
2019-01-24T22:36:45.001Z,99156.16
2019-01-24T22:39:27.730Z,99148.92
2019-01-24T22:42:08.640Z,99151.35
2019-01-24T22:44:50.833Z,99145.34
2019-01-24T22:47:32.178Z,99147.77
2019-01-24T22:56:05.257Z,99143.77
2019-01-24T22:58:56.239Z,99139.72
2019-01-24T23:01:37.937Z,99137.14
2019-01-24T23:07:20.049Z,99142.41
2019-01-24T23:16:06.080Z,99143.53
2019-01-24T23:18:48.000Z,99145.29
2019-01-24T23:24:32.903Z,99147.05
2019-01-24T23:27:14.604Z,99150.72
2019-01-24T23:29:56.596Z,99145.41
2019-01-24T23:35:42.890Z,99159.23
2019-01-24T23:38:24.147Z,99152.59
2019-01-24T23:41:05.545Z,99154.69
2019-01-24T23:44:15.450Z,99155.03
2019-01-24T23:47:15.400Z,99149.08
2019-01-24T23:50:16.068Z,99155.17
2019-01-24T23:52:57.201Z,99154.02
2019-01-24T23:55:40.180Z,99151.09
2019-01-24T23:58:22.093Z,99149.50
